Oconto, Wisconsin
Current Conditions -  °F | °C
As of 11:15 AM on Thursday 18 Dec 2014 (Local Time) from KOCQ Reporting Station
Overcast Overcast  
Wind Chill: 26°   Ceiling: 2000
Heat Index: 26°   Visibility: 10mi
Dew Point: 19°   Wind: 3mph
Humidity: 76%   Direction: 40°NE
Pressure: 30.28"   Gusts: NA
Location:  44.89°N, 87.86°W
Report Text: KOCQ 181715Z AUTO 04003KT 10SM OVC020 M03/M07 A3028 RMK AO1 T10331070
Loading
Personal Weather Stations






























Interactive Weather Map New forecast layout! Learn more

10-Day Weather Forecast

Advertisements
Track Severe Weather on mobile